Time;durP1;ratioP1;P1;durP2;ratioP2;P2;SDS_P1;SDS_P2;PMS_P1;PMS_P2;Temp;Humidity;BMP_temperature;BMP_pressure;BME280_temperature;BME280_humidity;BME280_pressure;Samples;Min_cycle;Max_cycle;Signal;HPM_P1;HPM_P2
2023/04/26 00:01:34;;;;;;;11.85;2.90;;;;;;;;;;5054892;28;20063;-77
2023/04/26 00:04:01;;;;;;;13.20;3.10;;;;;;;;;;5055361;28;20044;-77
2023/04/26 00:06:27;;;;;;;11.80;3.03;;;;;;;;;;5054088;28;20049;-77
2023/04/26 00:08:54;;;;;;;11.68;2.90;;;;;;;;;;5054960;28;20064;-76
2023/04/26 00:11:20;;;;;;;10.60;2.95;;;;;;;;;;5054929;28;20446;-76
2023/04/26 00:13:46;;;;;;;12.02;2.92;;;;;;;;;;5054843;28;20052;-76
2023/04/26 00:16:13;;;;;;;12.45;2.92;;;;;;;;;;5054358;28;20049;-76
2023/04/26 00:18:40;;;;;;;11.13;2.90;;;;;;;;;;5053786;28;20051;-76
2023/04/26 00:21:06;;;;;;;14.63;3.42;;;;;;;;;;5054745;28;20048;-76
2023/04/26 00:23:32;;;;;;;12.25;2.97;;;;;;;;;;5054826;28;20506;-76
2023/04/26 00:25:58;;;;;;;11.15;3.00;;;;;;;;;;5054898;28;20048;-76
2023/04/26 00:28:24;;;;;;;14.00;3.15;;;;;;;;;;5055988;28;20052;-77
2023/04/26 00:30:50;;;;;;;14.20;3.13;;;;;;;;;;5051323;28;20033;-76
2023/04/26 00:33:16;;;;;;;8.15;2.97;;;;;;;;;;5047155;28;20483;-76
2023/04/26 00:35:42;;;;;;;15.48;3.35;;;;;;;;;;5047555;28;20200;-77
2023/04/26 00:38:08;;;;;;;10.80;3.15;;;;;;;;;;5051415;28;20051;-76
2023/04/26 00:40:34;;;;;;;14.93;3.22;;;;;;;;;;5052013;28;20037;-76
2023/04/26 00:43:00;;;;;;;12.52;3.40;;;;;;;;;;5052045;28;20776;-77
2023/04/26 00:45:27;;;;;;;9.52;3.00;;;;;;;;;;5052929;28;20112;-77
2023/04/26 00:47:53;;;;;;;9.55;2.65;;;;;;;;;;5051259;28;20040;-76
2023/04/26 00:50:19;;;;;;;10.50;3.13;;;;;;;;;;5052257;28;20403;-77
2023/04/26 00:52:46;;;;;;;10.73;2.90;;;;;;;;;;5052241;28;20059;-76
2023/04/26 00:55:13;;;;;;;11.73;2.92;;;;;;;;;;5051256;28;20479;-77
2023/04/26 00:57:39;;;;;;;12.95;3.13;;;;;;;;;;5052071;28;20055;-76
2023/04/26 01:00:06;;;;;;;10.98;3.45;;;;;;;;;;5048041;28;20032;-76
2023/04/26 01:02:32;;;;;;;13.05;2.90;;;;;;;;;;5053951;28;20052;-76
2023/04/26 01:04:58;;;;;;;14.20;3.03;;;;;;;;;;5052545;28;20048;-77
2023/04/26 01:07:24;;;;;;;9.85;2.80;;;;;;;;;;5053174;28;20044;-75
2023/04/26 01:09:51;;;;;;;14.25;3.20;;;;;;;;;;5053908;28;20485;-76
2023/04/26 01:12:17;;;;;;;17.08;3.25;;;;;;;;;;5053721;28;20087;-77
2023/04/26 01:14:44;;;;;;;12.95;3.00;;;;;;;;;;5053763;28;20506;-76
2023/04/26 01:17:10;;;;;;;9.15;2.70;;;;;;;;;;5053902;28;20045;-76
2023/04/26 01:19:36;;;;;;;11.25;3.00;;;;;;;;;;5053616;28;20062;-76
2023/04/26 01:22:03;;;;;;;9.13;2.83;;;;;;;;;;5053613;28;20048;-76
2023/04/26 01:24:29;;;;;;;11.52;2.88;;;;;;;;;;5053391;28;20487;-76
2023/04/26 01:26:55;;;;;;;12.68;3.08;;;;;;;;;;5052921;28;20045;-77
2023/04/26 01:29:23;;;;;;;10.82;2.75;;;;;;;;;;5053561;28;20048;-76
2023/04/26 01:31:49;;;;;;;14.63;3.40;;;;;;;;;;5044594;28;20563;-76
2023/04/26 01:34:15;;;;;;;14.70;3.30;;;;;;;;;;5044855;28;20491;-77
2023/04/26 01:36:42;;;;;;;10.82;3.10;;;;;;;;;;5044829;28;20060;-76
2023/04/26 01:39:08;;;;;;;10.00;2.67;;;;;;;;;;5052067;28;20033;-77
2023/04/26 01:41:34;;;;;;;13.63;3.25;;;;;;;;;;5051328;28;20045;-76
2023/04/26 01:44:00;;;;;;;12.65;2.70;;;;;;;;;;5052814;28;20047;-76
2023/04/26 01:46:26;;;;;;;13.63;3.38;;;;;;;;;;5052335;28;20043;-76
2023/04/26 01:48:52;;;;;;;16.42;3.58;;;;;;;;;;5046547;28;20052;-76
2023/04/26 01:51:19;;;;;;;9.52;3.13;;;;;;;;;;5051999;28;20158;-76
2023/04/26 01:53:45;;;;;;;11.43;3.63;;;;;;;;;;5049335;28;20045;-76
2023/04/26 01:56:11;;;;;;;12.80;3.60;;;;;;;;;;5043602;28;20116;-76
2023/04/26 01:58:37;;;;;;;10.50;3.00;;;;;;;;;;5048952;28;20540;-76
2023/04/26 02:01:07;;;;;;;13.77;2.90;;;;;;;;;;5048547;28;20049;-76
2023/04/26 02:03:33;;;;;;;11.93;3.33;;;;;;;;;;5044257;28;20049;-76
2023/04/26 02:05:59;;;;;;;15.20;3.47;;;;;;;;;;5044176;28;20415;-76
2023/04/26 02:08:25;;;;;;;12.52;3.20;;;;;;;;;;5048386;28;20045;-76
2023/04/26 02:10:51;;;;;;;13.75;3.47;;;;;;;;;;5046867;28;20049;-76
2023/04/26 02:13:18;;;;;;;12.07;3.03;;;;;;;;;;5052417;28;20517;-76
2023/04/26 02:15:51;;;;;;;13.68;3.10;;;;;;;;;;5052183;28;20056;-77
2023/04/26 02:18:20;;;;;;;10.52;3.47;;;;;;;;;;5052537;28;20103;-75
2023/04/26 02:20:47;;;;;;;12.13;3.38;;;;;;;;;;5050133;28;20065;-76
2023/04/26 02:23:13;;;;;;;12.75;3.50;;;;;;;;;;5051796;28;20053;-76
2023/04/26 02:25:40;;;;;;;12.55;3.30;;;;;;;;;;5052275;28;20457;-77
2023/04/26 02:28:06;;;;;;;9.23;3.22;;;;;;;;;;5052265;28;20107;-77
2023/04/26 02:30:32;;;;;;;11.18;3.42;;;;;;;;;;5052385;28;20377;-76
2023/04/26 02:32:58;;;;;;;12.68;3.75;;;;;;;;;;5051848;28;20044;-76
2023/04/26 02:35:25;;;;;;;10.98;3.08;;;;;;;;;;5052209;28;20513;-76
2023/04/26 02:37:51;;;;;;;9.88;3.33;;;;;;;;;;5051818;28;20037;-76
2023/04/26 02:40:18;;;;;;;10.10;3.25;;;;;;;;;;5052398;28;20041;-77
2023/04/26 02:42:44;;;;;;;15.55;3.35;;;;;;;;;;5055699;28;20041;-76
2023/04/26 02:45:10;;;;;;;11.50;3.60;;;;;;;;;;5052716;28;20049;-76
2023/04/26 02:47:37;;;;;;;12.35;3.47;;;;;;;;;;5052543;28;20041;-76
2023/04/26 02:50:04;;;;;;;9.68;3.30;;;;;;;;;;5051471;28;20064;-76
2023/04/26 02:52:30;;;;;;;10.95;3.08;;;;;;;;;;5052321;28;20041;-76
2023/04/26 02:54:56;;;;;;;9.45;2.80;;;;;;;;;;5051953;28;20060;-77
2023/04/26 02:57:22;;;;;;;12.02;3.03;;;;;;;;;;5051691;28;20067;-77
2023/04/26 02:59:48;;;;;;;9.52;2.83;;;;;;;;;;5051964;28;20037;-77
2023/04/26 03:02:14;;;;;;;17.48;3.90;;;;;;;;;;5048331;28;20049;-77
2023/04/26 03:04:40;;;;;;;8.82;3.00;;;;;;;;;;5052317;28;20052;-77
2023/04/26 03:07:06;;;;;;;11.43;3.22;;;;;;;;;;5051171;28;20064;-77
2023/04/26 03:09:33;;;;;;;8.52;2.78;;;;;;;;;;5051556;28;20132;-77
2023/04/26 03:12:00;;;;;;;10.95;3.20;;;;;;;;;;5048755;28;20140;-76
2023/04/26 03:14:26;;;;;;;9.55;3.25;;;;;;;;;;5050680;28;20049;-76
2023/04/26 03:16:53;;;;;;;12.55;3.15;;;;;;;;;;5049945;28;20410;-76
2023/04/26 03:19:19;;;;;;;13.65;3.15;;;;;;;;;;5052027;28;20433;-76
2023/04/26 03:21:45;;;;;;;12.50;3.20;;;;;;;;;;5053876;28;20415;-76
2023/04/26 03:24:11;;;;;;;9.55;3.17;;;;;;;;;;5054240;28;20056;-76
2023/04/26 03:26:37;;;;;;;12.07;2.95;;;;;;;;;;5054367;28;20529;-76
2023/04/26 03:29:04;;;;;;;10.15;3.15;;;;;;;;;;5054227;28;20045;-76
2023/04/26 03:31:30;;;;;;;10.50;3.05;;;;;;;;;;5055226;28;20071;-77
2023/04/26 03:33:56;;;;;;;14.45;3.08;;;;;;;;;;5055023;28;20041;-77
2023/04/26 03:36:22;;;;;;;10.55;3.10;;;;;;;;;;5053298;28;20049;-76
2023/04/26 03:38:48;;;;;;;11.25;3.08;;;;;;;;;;5054995;28;20514;-76
2023/04/26 03:41:15;;;;;;;9.43;3.35;;;;;;;;;;5054818;28;20041;-77
2023/04/26 03:43:41;;;;;;;10.75;2.70;;;;;;;;;;5054993;28;20119;-77
2023/04/26 03:46:07;;;;;;;9.25;2.75;;;;;;;;;;5053217;28;20041;-76
2023/04/26 03:48:33;;;;;;;12.88;3.45;;;;;;;;;;5053478;28;20041;-77
2023/04/26 03:50:59;;;;;;;7.18;2.45;;;;;;;;;;5055108;28;20510;-77
2023/04/26 03:53:25;;;;;;;13.90;3.50;;;;;;;;;;5054916;28;20041;-76
2023/04/26 03:55:51;;;;;;;15.27;3.00;;;;;;;;;;5052579;28;20053;-77
2023/04/26 03:58:17;;;;;;;9.27;3.00;;;;;;;;;;5053301;28;20624;-76
2023/04/26 04:00:44;;;;;;;8.10;3.10;;;;;;;;;;5049368;28;20049;-77
2023/04/26 04:03:10;;;;;;;9.15;3.03;;;;;;;;;;5044722;28;20144;-77
2023/04/26 04:05:36;;;;;;;9.32;3.08;;;;;;;;;;5045167;28;20060;-77
2023/04/26 04:08:02;;;;;;;16.15;3.55;;;;;;;;;;5046202;28;20045;-76
2023/04/26 04:10:28;;;;;;;11.20;3.30;;;;;;;;;;5050819;28;20053;-76
2023/04/26 04:12:54;;;;;;;11.38;3.03;;;;;;;;;;5051438;28;20052;-77
2023/04/26 04:15:20;;;;;;;7.72;2.92;;;;;;;;;;5053626;28;20116;-76
2023/04/26 04:17:47;;;;;;;11.27;3.10;;;;;;;;;;5052915;28;20103;-76
2023/04/26 04:20:13;;;;;;;11.27;3.05;;;;;;;;;;5053810;28;20495;-76
2023/04/26 04:22:39;;;;;;;12.68;3.40;;;;;;;;;;5054512;28;20045;-77
2023/04/26 04:25:06;;;;;;;9.32;3.30;;;;;;;;;;5054111;28;20128;-76
2023/04/26 04:27:32;;;;;;;11.23;3.40;;;;;;;;;;5053185;28;20506;-76
2023/04/26 04:30:02;;;;;;;10.18;3.40;;;;;;;;;;5053939;28;20049;-76
2023/04/26 04:32:28;;;;;;;10.35;3.10;;;;;;;;;;5053729;28;20037;-77
2023/04/26 04:34:54;;;;;;;12.25;3.30;;;;;;;;;;5053706;28;20055;-77
2023/04/26 04:37:21;;;;;;;8.88;3.10;;;;;;;;;;5053571;28;20049;-77
2023/04/26 04:39:47;;;;;;;11.10;3.55;;;;;;;;;;5052438;28;20526;-77
2023/04/26 04:42:14;;;;;;;11.30;3.08;;;;;;;;;;5051707;28;20403;-77
2023/04/26 04:44:40;;;;;;;8.98;3.58;;;;;;;;;;5053036;28;20098;-76
2023/04/26 04:47:06;;;;;;;11.68;3.35;;;;;;;;;;5049406;28;20108;-76
2023/04/26 04:49:32;;;;;;;15.15;3.45;;;;;;;;;;5052365;28;20090;-78
2023/04/26 04:51:58;;;;;;;15.27;3.50;;;;;;;;;;5053033;28;20068;-77
2023/04/26 04:54:24;;;;;;;9.65;3.30;;;;;;;;;;5053758;28;20049;-76
2023/04/26 04:56:50;;;;;;;12.32;3.45;;;;;;;;;;5057371;28;20049;-76
2023/04/26 04:59:17;;;;;;;11.57;2.90;;;;;;;;;;5046477;28;20037;-76
2023/04/26 05:01:43;;;;;;;13.93;3.30;;;;;;;;;;5044347;28;20273;-77
2023/04/26 05:04:10;;;;;;;11.68;3.08;;;;;;;;;;5051423;28;20406;-76
2023/04/26 05:06:36;;;;;;;10.55;3.00;;;;;;;;;;5052226;28;20045;-77
2023/04/26 05:09:04;;;;;;;9.77;3.15;;;;;;;;;;5050835;28;20056;-77
2023/04/26 05:11:30;;;;;;;11.82;3.20;;;;;;;;;;5051469;28;20110;-76
2023/04/26 05:13:56;;;;;;;10.15;3.15;;;;;;;;;;5052113;28;20052;-77
2023/04/26 05:16:23;;;;;;;11.02;3.30;;;;;;;;;;5051598;28;20037;-77
2023/04/26 05:18:49;;;;;;;11.50;3.25;;;;;;;;;;5052490;28;20048;-77
2023/04/26 05:21:15;;;;;;;9.38;3.42;;;;;;;;;;5051996;28;20048;-77
2023/04/26 05:23:41;;;;;;;9.18;3.60;;;;;;;;;;5047732;28;20036;-76
2023/04/26 05:26:07;;;;;;;11.13;3.42;;;;;;;;;;5049826;28;20180;-77
2023/04/26 05:28:33;;;;;;;8.27;3.03;;;;;;;;;;5046446;28;20045;-77
2023/04/26 05:31:00;;;;;;;9.80;3.30;;;;;;;;;;5052254;28;20052;-76
2023/04/26 05:33:27;;;;;;;10.63;3.20;;;;;;;;;;5051371;28;20052;-77
2023/04/26 05:35:53;;;;;;;10.57;3.22;;;;;;;;;;5051719;28;20049;-77
2023/04/26 05:38:20;;;;;;;9.45;3.60;;;;;;;;;;5049943;28;20144;-77
2023/04/26 05:40:47;;;;;;;11.95;3.28;;;;;;;;;;5051487;28;20083;-76
2023/04/26 05:43:13;;;;;;;11.05;3.20;;;;;;;;;;5050552;28;20077;-77
2023/04/26 05:45:39;;;;;;;11.68;3.47;;;;;;;;;;5049914;28;20033;-77
2023/04/26 05:48:06;;;;;;;9.05;3.00;;;;;;;;;;5047338;28;20098;-76
2023/04/26 05:50:32;;;;;;;10.50;3.60;;;;;;;;;;5049529;28;20049;-77
2023/04/26 05:52:58;;;;;;;10.50;3.60;;;;;;;;;;5048322;28;20548;-77
2023/04/26 05:55:24;;;;;;;9.85;3.55;;;;;;;;;;5049036;28;20048;-76
2023/04/26 05:57:50;;;;;;;13.70;3.22;;;;;;;;;;5049387;28;20037;-77
2023/04/26 06:00:18;;;;;;;10.10;3.35;;;;;;;;;;5042668;28;20529;-76
2023/04/26 06:02:45;;;;;;;8.68;3.28;;;;;;;;;;5047343;28;20052;-76
2023/04/26 06:05:11;;;;;;;9.93;3.05;;;;;;;;;;5043956;28;20055;-76
2023/04/26 06:07:38;;;;;;;8.90;3.22;;;;;;;;;;5045331;28;20051;-76
2023/04/26 06:10:04;;;;;;;11.70;3.30;;;;;;;;;;5042515;28;20514;-77
2023/04/26 06:12:30;;;;;;;10.45;3.03;;;;;;;;;;5049041;28;20488;-76
2023/04/26 06:14:56;;;;;;;13.85;3.28;;;;;;;;;;5052227;28;20051;-77
2023/04/26 06:17:22;;;;;;;13.18;3.40;;;;;;;;;;5052196;28;20045;-76
2023/04/26 06:19:48;;;;;;;8.63;3.15;;;;;;;;;;5052211;28;20483;-77
2023/04/26 06:22:14;;;;;;;10.63;3.20;;;;;;;;;;5055979;28;20178;-76
2023/04/26 06:24:40;;;;;;;9.95;3.40;;;;;;;;;;5052036;28;20045;-77
2023/04/26 06:27:06;;;;;;;9.65;2.88;;;;;;;;;;5051534;28;20067;-77
2023/04/26 06:29:32;;;;;;;10.60;3.00;;;;;;;;;;5051739;28;20124;-77
2023/04/26 06:31:59;;;;;;;8.00;2.55;;;;;;;;;;5051341;28;20124;-76
2023/04/26 06:34:25;;;;;;;10.20;2.25;;;;;;;;;;5049257;28;20057;-77
2023/04/26 06:36:51;;;;;;;9.85;2.67;;;;;;;;;;5050678;28;20063;-78
2023/04/26 06:39:17;;;;;;;8.93;2.67;;;;;;;;;;5046273;28;20120;-77
2023/04/26 06:41:43;;;;;;;10.00;2.17;;;;;;;;;;5041291;28;20049;-78
2023/04/26 06:44:09;;;;;;;7.70;2.30;;;;;;;;;;5051083;28;20045;-77
2023/04/26 06:46:36;;;;;;;6.53;1.80;;;;;;;;;;5049871;28;20072;-77
2023/04/26 06:49:02;;;;;;;7.57;1.80;;;;;;;;;;5052055;28;20146;-77
2023/04/26 06:51:30;;;;;;;7.55;1.95;;;;;;;;;;5052039;28;20048;-77
2023/04/26 06:53:57;;;;;;;8.68;2.20;;;;;;;;;;5051581;28;20049;-78
2023/04/26 06:56:24;;;;;;;8.43;1.95;;;;;;;;;;5051554;28;20248;-77
2023/04/26 06:59:00;;;;;;;9.43;2.17;;;;;;;;;;5054577;28;20037;-77
2023/04/26 07:01:28;;;;;;;8.00;2.10;;;;;;;;;;5054187;28;20041;-77
2023/04/26 07:03:55;;;;;;;7.38;1.75;;;;;;;;;;5055556;28;20422;-77
2023/04/26 07:06:21;;;;;;;7.47;1.88;;;;;;;;;;5054760;28;20049;-77
2023/04/26 07:08:47;;;;;;;7.90;2.00;;;;;;;;;;5058317;28;20064;-77
2023/04/26 07:11:13;;;;;;;10.48;2.17;;;;;;;;;;5057710;28;20041;-76
2023/04/26 07:13:39;;;;;;;9.25;1.90;;;;;;;;;;5055110;28;20045;-76
2023/04/26 07:16:05;;;;;;;8.27;1.90;;;;;;;;;;5055065;28;20102;-77
2023/04/26 07:18:31;;;;;;;5.78;1.77;;;;;;;;;;5054942;28;20083;-77
2023/04/26 07:20:57;;;;;;;6.45;1.75;;;;;;;;;;5053311;28;20045;-77
2023/04/26 07:23:23;;;;;;;6.97;1.73;;;;;;;;;;5054702;28;20044;-77
2023/04/26 07:25:50;;;;;;;7.95;1.75;;;;;;;;;;5055578;28;20140;-77
2023/04/26 07:28:16;;;;;;;9.88;1.92;;;;;;;;;;5055668;28;20045;-77
2023/04/26 07:30:42;;;;;;;8.13;1.92;;;;;;;;;;5054461;28;20099;-78
2023/04/26 07:33:08;;;;;;;6.05;1.88;;;;;;;;;;5055529;28;20053;-77
2023/04/26 07:35:34;;;;;;;8.15;2.03;;;;;;;;;;5054458;28;20056;-77
2023/04/26 07:38:01;;;;;;;6.75;1.67;;;;;;;;;;5055107;28;20091;-77
2023/04/26 07:40:28;;;;;;;7.57;1.83;;;;;;;;;;5055017;28;20045;-76
2023/04/26 07:42:54;;;;;;;8.15;2.28;;;;;;;;;;5054933;28;20394;-77
2023/04/26 07:45:20;;;;;;;9.43;2.03;;;;;;;;;;5054954;28;20102;-76
2023/04/26 07:47:47;;;;;;;7.13;1.90;;;;;;;;;;5053452;28;20045;-76
2023/04/26 07:50:13;;;;;;;8.35;1.80;;;;;;;;;;5054529;28;20056;-76
2023/04/26 07:52:39;;;;;;;7.45;1.95;;;;;;;;;;5054608;28;20071;-76
2023/04/26 07:55:05;;;;;;;7.40;1.95;;;;;;;;;;5054710;28;20049;-76
2023/04/26 07:57:31;;;;;;;7.32;1.67;;;;;;;;;;5054065;28;20033;-76
2023/04/26 07:59:58;;;;;;;7.55;1.77;;;;;;;;;;5053977;28;20049;-76
2023/04/26 08:02:24;;;;;;;7.90;1.63;;;;;;;;;;5053373;28;20443;-76
2023/04/26 08:04:54;;;;;;;9.85;2.10;;;;;;;;;;5053828;28;20052;-77
2023/04/26 08:07:20;;;;;;;11.52;1.92;;;;;;;;;;5052927;28;20391;-77
2023/04/26 08:09:48;;;;;;;9.60;2.00;;;;;;;;;;5054097;28;20061;-76
2023/04/26 08:12:14;;;;;;;8.52;1.70;;;;;;;;;;5053363;28;20049;-77
2023/04/26 08:14:40;;;;;;;7.47;1.70;;;;;;;;;;5053626;28;20049;-77
2023/04/26 08:17:09;;;;;;;12.10;1.98;;;;;;;;;;5053537;28;20045;-76
2023/04/26 08:19:35;;;;;;;7.45;1.60;;;;;;;;;;5052554;28;20043;-77
2023/04/26 08:22:02;;;;;;;8.23;1.80;;;;;;;;;;5053818;28;20037;-77
2023/04/26 08:24:28;;;;;;;5.80;1.73;;;;;;;;;;5053477;28;20130;-76
2023/04/26 08:26:54;;;;;;;8.60;2.13;;;;;;;;;;5052588;28;20045;-77
2023/04/26 08:29:21;;;;;;;8.57;2.10;;;;;;;;;;5049588;28;20804;-77
2023/04/26 08:31:47;;;;;;;6.78;1.80;;;;;;;;;;5049033;28;20098;-77
2023/04/26 08:34:13;;;;;;;9.32;1.85;;;;;;;;;;5049961;28;20037;-77
2023/04/26 08:36:43;;;;;;;9.73;1.88;;;;;;;;;;5049612;28;20133;-76
2023/04/26 08:39:11;;;;;;;8.45;1.90;;;;;;;;;;5048170;28;20048;-76
2023/04/26 08:41:41;;;;;;;7.82;1.80;;;;;;;;;;5049916;28;20045;-76
2023/04/26 08:44:08;;;;;;;7.30;1.95;;;;;;;;;;5048399;28;20051;-77
2023/04/26 08:46:36;;;;;;;9.48;1.90;;;;;;;;;;5043831;28;20120;-77
2023/04/26 08:49:20;;;;;;;6.10;1.58;;;;;;;;;;5048420;28;20079;-76
2023/04/26 08:51:47;;;;;;;8.55;1.85;;;;;;;;;;5052889;28;20047;-77
2023/04/26 08:54:14;;;;;;;5.75;1.83;;;;;;;;;;5050451;28;20376;-77
2023/04/26 08:56:42;;;;;;;7.50;1.52;;;;;;;;;;5050176;28;20064;-77
2023/04/26 08:59:09;;;;;;;5.47;1.40;;;;;;;;;;5051977;28;20045;-73
2023/04/26 09:01:39;;;;;;;7.65;1.58;;;;;;;;;;5051635;28;21420;-74
2023/04/26 09:04:06;;;;;;;8.57;1.90;;;;;;;;;;5048201;28;20056;-73
2023/04/26 09:06:33;;;;;;;9.18;1.75;;;;;;;;;;5051273;28;20048;-74
2023/04/26 09:09:03;;;;;;;5.70;1.70;;;;;;;;;;5049923;28;20063;-74
2023/04/26 09:11:29;;;;;;;8.53;2.10;;;;;;;;;;5050877;28;20041;-74
2023/04/26 09:13:56;;;;;;;5.97;1.70;;;;;;;;;;5033267;28;20127;-74
2023/04/26 09:16:37;;;;;;;8.48;1.70;;;;;;;;;;5032765;28;20053;-74
2023/04/26 09:19:03;;;;;;;6.38;1.65;;;;;;;;;;5052242;28;20037;-74
2023/04/26 09:21:30;;;;;;;7.57;1.73;;;;;;;;;;5051688;28;20041;-74
2023/04/26 09:24:03;;;;;;;7.82;1.90;;;;;;;;;;5053210;28;20044;-74
2023/04/26 09:26:29;;;;;;;7.40;1.90;;;;;;;;;;5053658;28;20041;-74
2023/04/26 09:29:31;;;;;;;9.82;2.05;;;;;;;;;;5052899;28;20045;-74
2023/04/26 09:31:57;;;;;;;9.50;1.73;;;;;;;;;;5034250;28;20519;-73
2023/04/26 09:34:23;;;;;;;8.30;2.00;;;;;;;;;;5048639;28;20056;-73
2023/04/26 09:36:49;;;;;;;7.22;1.88;;;;;;;;;;5046104;28;20082;-74
2023/04/26 09:39:30;;;;;;;13.35;2.30;;;;;;;;;;5049171;28;20049;-74
2023/04/26 09:41:56;;;;;;;5.82;1.75;;;;;;;;;;5050902;28;20056;-75
2023/04/26 09:44:23;;;;;;;8.63;2.05;;;;;;;;;;5038387;28;20068;-74
2023/04/26 09:46:59;;;;;;;6.90;1.83;;;;;;;;;;5030310;28;20050;-74
2023/04/26 09:49:26;;;;;;;7.32;1.63;;;;;;;;;;5031871;28;20049;-73
2023/04/26 09:52:02;;;;;;;5.15;1.90;;;;;;;;;;5066287;28;20060;-74
2023/04/26 09:54:47;;;;;;;4.88;1.40;;;;;;;;;;5057604;28;20388;-73
2023/04/26 09:57:14;;;;;;;9.15;2.10;;;;;;;;;;5049026;28;20069;-73
2023/04/26 09:59:42;;;;;;;9.02;1.90;;;;;;;;;;5049123;28;20135;-73
2023/04/26 10:02:28;;;;;;;7.25;1.70;;;;;;;;;;5049427;28;20041;-76
2023/04/26 10:04:55;;;;;;;8.48;1.77;;;;;;;;;;5034497;28;20095;-74
2023/04/26 10:07:22;;;;;;;6.97;1.73;;;;;;;;;;5049140;28;20045;-74
2023/04/26 10:09:49;;;;;;;7.53;1.92;;;;;;;;;;5036357;28;20545;-74
2023/04/26 10:12:16;;;;;;;7.72;1.83;;;;;;;;;;5047048;28;20072;-73
2023/04/26 10:14:43;;;;;;;6.35;1.73;;;;;;;;;;5048160;28;20156;-74
2023/04/26 10:17:10;;;;;;;10.60;2.17;;;;;;;;;;5051729;28;20045;-74
2023/04/26 10:19:37;;;;;;;7.15;1.92;;;;;;;;;;5049095;28;21587;-73
2023/04/26 10:22:15;;;;;;;12.07;2.55;;;;;;;;;;5051209;28;20037;-73
2023/04/26 10:24:43;;;;;;;10.60;2.88;;;;;;;;;;5049608;28;20044;-73
2023/04/26 10:27:09;;;;;;;9.52;2.30;;;;;;;;;;5051020;28;20041;-73
2023/04/26 10:29:53;;;;;;;8.65;2.78;;;;;;;;;;5055893;28;20685;-74
2023/04/26 10:32:23;;;;;;;9.48;2.40;;;;;;;;;;5055558;28;20048;-74
2023/04/26 10:35:08;;;;;;;9.98;2.38;;;;;;;;;;5053997;28;20073;-74
2023/04/26 10:37:34;;;;;;;11.43;2.75;;;;;;;;;;5056396;28;20045;-73
2023/04/26 10:40:22;;;;;;;8.23;2.40;;;;;;;;;;5055724;28;20045;-74
2023/04/26 10:42:48;;;;;;;11.75;2.67;;;;;;;;;;5054023;28;20048;-73
2023/04/26 10:45:28;;;;;;;9.25;2.60;;;;;;;;;;5054771;28;20053;-73
2023/04/26 10:48:14;;;;;;;9.77;2.20;;;;;;;;;;5050024;28;20056;-73
2023/04/26 10:51:01;;;;;;;10.27;3.60;;;;;;;;;;5051493;28;20053;-75
2023/04/26 10:53:46;;;;;;;16.67;8.13;;;;;;;;;;5051315;28;20048;-74
2023/04/26 10:56:34;;;;;;;9.45;4.80;;;;;;;;;;5055322;28;20060;-74
2023/04/26 10:59:08;;;;;;;13.07;2.80;;;;;;;;;;5044856;28;20119;-75
2023/04/26 11:01:34;;;;;;;12.52;2.72;;;;;;;;;;5055227;28;20049;-75
2023/04/26 11:04:04;;;;;;;6.40;2.58;;;;;;;;;;5047742;28;20049;-75
2023/04/26 11:06:49;;;;;;;12.73;2.60;;;;;;;;;;5053692;28;20385;-74
2023/04/26 11:09:38;;;;;;;11.63;2.67;;;;;;;;;;5049380;28;20099;-74
2023/04/26 11:12:04;;;;;;;11.13;2.72;;;;;;;;;;5053896;28;20410;-74
2023/04/26 11:14:30;;;;;;;7.95;2.30;;;;;;;;;;5053697;28;20449;-74
2023/04/26 11:16:56;;;;;;;8.70;2.20;;;;;;;;;;5054543;28;20080;-73
2023/04/26 11:19:22;;;;;;;12.38;2.45;;;;;;;;;;5049325;28;20040;-73
2023/04/26 11:21:49;;;;;;;10.18;2.75;;;;;;;;;;5049621;28;20041;-74
2023/04/26 11:24:15;;;;;;;11.68;2.83;;;;;;;;;;5051957;28;20076;-75
2023/04/26 11:26:41;;;;;;;6.85;2.38;;;;;;;;;;5055275;28;20056;-75
2023/04/26 11:29:09;;;;;;;10.25;2.20;;;;;;;;;;5052245;28;20067;-73
2023/04/26 11:31:36;;;;;;;7.53;2.28;;;;;;;;;;5049524;28;20174;-75
2023/04/26 11:34:05;;;;;;;15.95;2.70;;;;;;;;;;5055511;28;20102;-74
2023/04/26 11:36:31;;;;;;;18.13;2.67;;;;;;;;;;5056836;28;20044;-77
2023/04/26 11:38:58;;;;;;;9.25;2.22;;;;;;;;;;5056208;28;20104;-74
2023/04/26 11:41:25;;;;;;;7.90;2.20;;;;;;;;;;5052060;28;20041;-74
2023/04/26 11:43:51;;;;;;;10.10;2.33;;;;;;;;;;5052630;28;20574;-73
2023/04/26 11:46:20;;;;;;;10.75;2.53;;;;;;;;;;5053302;28;20572;-72
2023/04/26 11:48:46;;;;;;;14.15;2.88;;;;;;;;;;5052544;28;20052;-73
2023/04/26 11:51:12;;;;;;;9.60;2.58;;;;;;;;;;5049970;28;20049;-73
2023/04/26 11:53:42;;;;;;;7.85;2.20;;;;;;;;;;5052058;28;20037;-72
2023/04/26 11:56:15;;;;;;;7.32;2.28;;;;;;;;;;5054876;28;20127;-72
2023/04/26 11:58:43;;;;;;;9.40;2.53;;;;;;;;;;5054513;28;20055;-73
2023/04/26 12:01:09;;;;;;;8.30;2.00;;;;;;;;;;5053809;28;20045;-74
2023/04/26 12:03:36;;;;;;;6.93;1.85;;;;;;;;;;5051739;28;20036;-72
2023/04/26 12:06:05;;;;;;;6.05;1.88;;;;;;;;;;5053242;28;20518;-72
2023/04/26 12:08:32;;;;;;;7.57;1.90;;;;;;;;;;5053351;28;20048;-72
2023/04/26 12:11:00;;;;;;;7.63;2.45;;;;;;;;;;5053595;28;20116;-72
2023/04/26 12:13:26;;;;;;;8.48;2.05;;;;;;;;;;5053790;28;20160;-73
2023/04/26 12:15:52;;;;;;;8.32;2.17;;;;;;;;;;5054366;28;20041;-73
2023/04/26 12:18:19;;;;;;;9.15;2.00;;;;;;;;;;5050511;28;20041;-73
2023/04/26 12:20:45;;;;;;;10.13;1.77;;;;;;;;;;5052852;28;20041;-72
2023/04/26 12:23:15;;;;;;;7.40;1.80;;;;;;;;;;5051499;28;20049;-73
2023/04/26 12:25:51;;;;;;;7.80;1.77;;;;;;;;;;5053584;28;20040;-72
2023/04/26 12:28:17;;;;;;;9.15;3.63;;;;;;;;;;5054114;28;20051;-72
2023/04/26 12:30:43;;;;;;;12.73;3.25;;;;;;;;;;5053838;28;20064;-73
2023/04/26 12:33:10;;;;;;;11.85;3.10;;;;;;;;;;5051716;28;20048;-72
2023/04/26 12:35:36;;;;;;;10.48;3.33;;;;;;;;;;5053615;28;20171;-72
2023/04/26 12:38:02;;;;;;;10.68;3.83;;;;;;;;;;5053977;28;20045;-77
2023/04/26 12:40:28;;;;;;;9.63;2.75;;;;;;;;;;5050375;28;20041;-77
2023/04/26 12:42:55;;;;;;;9.10;2.20;;;;;;;;;;5051108;28;20040;-77
2023/04/26 12:45:22;;;;;;;9.65;4.00;;;;;;;;;;5051334;28;20048;-77
2023/04/26 12:47:48;;;;;;;12.70;2.90;;;;;;;;;;5053681;28;20045;-77
2023/04/26 12:50:15;;;;;;;10.40;3.65;;;;;;;;;;5052722;28;20060;-78
2023/04/26 12:52:45;;;;;;;10.80;3.20;;;;;;;;;;5045238;28;20053;-76
2023/04/26 12:55:11;;;;;;;10.90;3.58;;;;;;;;;;5051586;28;20041;-78
2023/04/26 12:57:38;;;;;;;9.43;3.53;;;;;;;;;;5063588;28;20066;-77
2023/04/26 13:00:09;;;;;;;8.70;3.67;;;;;;;;;;5044154;28;20502;-77
2023/04/26 13:02:35;;;;;;;10.20;3.38;;;;;;;;;;5053582;28;20135;-77
2023/04/26 13:05:03;;;;;;;7.15;2.38;;;;;;;;;;5050986;28;20123;-77
2023/04/26 13:07:30;;;;;;;12.07;2.90;;;;;;;;;;5053318;28;20129;-77
2023/04/26 13:09:57;;;;;;;14.95;2.83;;;;;;;;;;5049167;28;20145;-77
2023/04/26 13:12:23;;;;;;;8.32;2.65;;;;;;;;;;5053017;28;20045;-76
2023/04/26 13:14:49;;;;;;;8.15;2.20;;;;;;;;;;5070707;28;20047;-77
2023/04/26 13:17:15;;;;;;;8.15;1.92;;;;;;;;;;5053309;28;20415;-76
2023/04/26 13:19:41;;;;;;;9.70;2.50;;;;;;;;;;5062790;28;20214;-78
2023/04/26 13:22:10;;;;;;;8.02;2.33;;;;;;;;;;5054270;28;20041;-77
2023/04/26 13:24:36;;;;;;;9.90;2.38;;;;;;;;;;5055636;28;20064;-77
2023/04/26 13:27:02;;;;;;;12.30;2.45;;;;;;;;;;5060180;28;20045;-77
2023/04/26 13:29:30;;;;;;;8.23;2.20;;;;;;;;;;5052956;28;20403;-77
2023/04/26 13:31:57;;;;;;;8.73;2.10;;;;;;;;;;5052513;28;20057;-77
2023/04/26 13:34:24;;;;;;;9.05;2.25;;;;;;;;;;5052155;28;20040;-76
2023/04/26 13:36:50;;;;;;;10.07;2.35;;;;;;;;;;5051962;28;20069;-77
2023/04/26 13:39:16;;;;;;;9.02;2.13;;;;;;;;;;5049573;28;20463;-77
2023/04/26 13:41:42;;;;;;;7.95;2.00;;;;;;;;;;5049970;28;20052;-77
2023/04/26 13:44:08;;;;;;;6.72;2.00;;;;;;;;;;5045856;28;20459;-77
2023/04/26 13:46:35;;;;;;;7.60;2.20;;;;;;;;;;5049624;28;20411;-78
2023/04/26 13:49:01;;;;;;;8.73;2.20;;;;;;;;;;5054594;28;20522;-77
2023/04/26 13:51:29;;;;;;;7.57;2.38;;;;;;;;;;5061535;28;20102;-77
2023/04/26 13:53:55;;;;;;;13.05;2.80;;;;;;;;;;5051949;28;20499;-77
2023/04/26 13:56:22;;;;;;;8.63;2.55;;;;;;;;;;5066935;28;20044;-77
2023/04/26 13:58:48;;;;;;;9.75;2.90;;;;;;;;;;5053474;28;20049;-77
2023/04/26 14:01:14;;;;;;;9.68;2.75;;;;;;;;;;5051381;28;20526;-77
2023/04/26 14:03:41;;;;;;;11.90;2.90;;;;;;;;;;5062720;28;20464;-78
2023/04/26 14:06:08;;;;;;;10.27;2.92;;;;;;;;;;5054804;28;20495;-78
2023/04/26 14:08:34;;;;;;;8.10;2.80;;;;;;;;;;5051126;28;20049;-77
2023/04/26 14:11:00;;;;;;;6.78;2.40;;;;;;;;;;5052508;28;20084;-77
2023/04/26 14:13:26;;;;;;;7.75;2.95;;;;;;;;;;5060295;28;20119;-76
2023/04/26 14:15:52;;;;;;;9.73;2.60;;;;;;;;;;5056070;28;20048;-77
2023/04/26 14:18:18;;;;;;;7.20;2.30;;;;;;;;;;5053987;28;20514;-77
2023/04/26 14:20:45;;;;;;;8.88;2.28;;;;;;;;;;5036759;28;20388;-78
2023/04/26 14:23:11;;;;;;;9.98;2.45;;;;;;;;;;5050973;28;20123;-77
2023/04/26 14:25:37;;;;;;;8.00;2.22;;;;;;;;;;5052078;28;20037;-77
2023/04/26 14:28:03;;;;;;;8.15;2.53;;;;;;;;;;5049941;28;20457;-78
2023/04/26 14:30:30;;;;;;;8.95;2.72;;;;;;;;;;5053788;28;20070;-78
2023/04/26 14:32:56;;;;;;;6.82;2.10;;;;;;;;;;5059512;28;20048;-77
2023/04/26 14:35:22;;;;;;;9.55;2.53;;;;;;;;;;5056374;28;20053;-77
2023/04/26 14:37:48;;;;;;;10.32;2.67;;;;;;;;;;5051692;28;20179;-77